sensor_id;sensor_type;location;lat;lon;timestamp;temperature;humidity
31979;DHT22;18502;43.574;1.276;2023-02-03T00:00:13;1.90;90.30
31979;DHT22;18502;43.574;1.276;2023-02-03T00:02:39;1.80;90.30
31979;DHT22;18502;43.574;1.276;2023-02-03T00:05:04;1.70;90.40
31979;DHT22;18502;43.574;1.276;2023-02-03T00:07:30;1.60;90.30
31979;DHT22;18502;43.574;1.276;2023-02-03T00:09:56;1.60;90.80
31979;DHT22;18502;43.574;1.276;2023-02-03T00:12:21;1.50;91.10
31979;DHT22;18502;43.574;1.276;2023-02-03T00:14:47;1.40;91.20
31979;DHT22;18502;43.574;1.276;2023-02-03T00:17:12;1.30;91.50
31979;DHT22;18502;43.574;1.276;2023-02-03T00:19:39;1.30;91.40
31979;DHT22;18502;43.574;1.276;2023-02-03T00:22:05;1.30;91.40
31979;DHT22;18502;43.574;1.276;2023-02-03T00:24:30;1.20;91.30
31979;DHT22;18502;43.574;1.276;2023-02-03T00:26:56;1.10;91.90
31979;DHT22;18502;43.574;1.276;2023-02-03T00:29:21;1.00;91.90
31979;DHT22;18502;43.574;1.276;2023-02-03T00:31:50;1.00;92.10
31979;DHT22;18502;43.574;1.276;2023-02-03T00:34:17;1.00;92.10
31979;DHT22;18502;43.574;1.276;2023-02-03T00:36:42;0.80;92.30
31979;DHT22;18502;43.574;1.276;2023-02-03T00:39:08;0.70;92.90
31979;DHT22;18502;43.574;1.276;2023-02-03T00:41:33;0.70;93.20
31979;DHT22;18502;43.574;1.276;2023-02-03T00:43:59;0.70;93.30
31979;DHT22;18502;43.574;1.276;2023-02-03T00:46:24;0.60;93.60
31979;DHT22;18502;43.574;1.276;2023-02-03T00:48:50;0.70;93.60
31979;DHT22;18502;43.574;1.276;2023-02-03T00:51:15;0.70;93.30
31979;DHT22;18502;43.574;1.276;2023-02-03T00:53:41;0.80;93.60
31979;DHT22;18502;43.574;1.276;2023-02-03T00:56:06;0.70;93.70
31979;DHT22;18502;43.574;1.276;2023-02-03T00:58:39;0.60;93.80
31979;DHT22;18502;43.574;1.276;2023-02-03T01:01:05;0.70;93.70
31979;DHT22;18502;43.574;1.276;2023-02-03T01:03:30;0.60;93.80
31979;DHT22;18502;43.574;1.276;2023-02-03T01:05:56;0.50;94.10
31979;DHT22;18502;43.574;1.276;2023-02-03T01:08:21;0.40;94.70
31979;DHT22;18502;43.574;1.276;2023-02-03T01:10:48;0.40;94.70
31979;DHT22;18502;43.574;1.276;2023-02-03T01:13:13;0.50;94.60
31979;DHT22;18502;43.574;1.276;2023-02-03T01:15:46;0.40;94.90
31979;DHT22;18502;43.574;1.276;2023-02-03T01:18:12;0.40;94.80
31979;DHT22;18502;43.574;1.276;2023-02-03T01:20:37;0.40;94.80
31979;DHT22;18502;43.574;1.276;2023-02-03T01:23:03;0.30;95.00
31979;DHT22;18502;43.574;1.276;2023-02-03T01:25:28;0.30;95.20
31979;DHT22;18502;43.574;1.276;2023-02-03T01:27:54;0.30;95.20
31979;DHT22;18502;43.574;1.276;2023-02-03T01:30:20;0.20;95.40
31979;DHT22;18502;43.574;1.276;2023-02-03T01:32:45;0.20;95.40
31979;DHT22;18502;43.574;1.276;2023-02-03T01:35:11;0.20;95.20
31979;DHT22;18502;43.574;1.276;2023-02-03T01:37:36;0.30;95.20
31979;DHT22;18502;43.574;1.276;2023-02-03T01:40:02;0.20;95.40
31979;DHT22;18502;43.574;1.276;2023-02-03T01:42:29;0.20;95.50
31979;DHT22;18502;43.574;1.276;2023-02-03T01:44:56;0.10;95.40
31979;DHT22;18502;43.574;1.276;2023-02-03T01:52:51;0.10;95.90
31979;DHT22;18502;43.574;1.276;2023-02-03T01:55:21;0.00;96.00
31979;DHT22;18502;43.574;1.276;2023-02-03T01:57:52;0.10;96.00
31979;DHT22;18502;43.574;1.276;2023-02-03T02:00:20;0.10;95.80
31979;DHT22;18502;43.574;1.276;2023-02-03T02:02:46;0.10;95.60
31979;DHT22;18502;43.574;1.276;2023-02-03T02:05:21;0.00;95.60
31979;DHT22;18502;43.574;1.276;2023-02-03T02:07:49;0.00;95.70
31979;DHT22;18502;43.574;1.276;2023-02-03T02:10:15;-0.10;95.80
31979;DHT22;18502;43.574;1.276;2023-02-03T02:12:41;-0.10;96.30
31979;DHT22;18502;43.574;1.276;2023-02-03T02:15:06;-0.20;96.40
31979;DHT22;18502;43.574;1.276;2023-02-03T02:17:38;-0.20;96.60
31979;DHT22;18502;43.574;1.276;2023-02-03T02:22:52;-0.40;97.10
31979;DHT22;18502;43.574;1.276;2023-02-03T02:30:39;-0.40;98.00
31979;DHT22;18502;43.574;1.276;2023-02-03T02:41:22;-0.30;97.60
31979;DHT22;18502;43.574;1.276;2023-02-03T02:46:51;-0.30;97.50
31979;DHT22;18502;43.574;1.276;2023-02-03T02:49:24;-0.40;97.80
31979;DHT22;18502;43.574;1.276;2023-02-03T02:51:52;-0.40;97.90
31979;DHT22;18502;43.574;1.276;2023-02-03T02:54:19;-0.40;98.00
31979;DHT22;18502;43.574;1.276;2023-02-03T02:56:47;-0.60;98.30
31979;DHT22;18502;43.574;1.276;2023-02-03T02:59:14;-0.60;98.60
31979;DHT22;18502;43.574;1.276;2023-02-03T03:01:39;-0.60;98.70
31979;DHT22;18502;43.574;1.276;2023-02-03T03:04:05;-0.50;98.10
31979;DHT22;18502;43.574;1.276;2023-02-03T03:06:52;-0.40;98.20
31979;DHT22;18502;43.574;1.276;2023-02-03T03:09:23;-0.40;98.50
31979;DHT22;18502;43.574;1.276;2023-02-03T03:11:51;-0.50;98.00
31979;DHT22;18502;43.574;1.276;2023-02-03T03:14:18;-0.50;97.60
31979;DHT22;18502;43.574;1.276;2023-02-03T03:16:46;-0.40;97.70
31979;DHT22;18502;43.574;1.276;2023-02-03T03:19:14;-0.40;97.70
31979;DHT22;18502;43.574;1.276;2023-02-03T03:21:48;-0.50;97.80
31979;DHT22;18502;43.574;1.276;2023-02-03T03:24:15;-0.60;98.30
31979;DHT22;18502;43.574;1.276;2023-02-03T03:26:50;-0.70;98.70
31979;DHT22;18502;43.574;1.276;2023-02-03T03:29:21;-0.60;98.70
31979;DHT22;18502;43.574;1.276;2023-02-03T03:31:48;-0.70;99.10
31979;DHT22;18502;43.574;1.276;2023-02-03T03:34:14;-0.70;99.20
31979;DHT22;18502;43.574;1.276;2023-02-03T03:41:42;-0.80;99.90
31979;DHT22;18502;43.574;1.276;2023-02-03T03:44:14;-0.80;99.90
31979;DHT22;18502;43.574;1.276;2023-02-03T03:46:45;-0.70;99.90
31979;DHT22;18502;43.574;1.276;2023-02-03T03:49:13;-0.70;99.50
31979;DHT22;18502;43.574;1.276;2023-02-03T03:51:50;-0.70;99.70
31979;DHT22;18502;43.574;1.276;2023-02-03T03:54:18;-0.80;99.70
31979;DHT22;18502;43.574;1.276;2023-02-03T03:56:56;-0.80;99.80
31979;DHT22;18502;43.574;1.276;2023-02-03T03:59:23;-0.80;99.90
31979;DHT22;18502;43.574;1.276;2023-02-03T04:01:50;-0.80;99.90
31979;DHT22;18502;43.574;1.276;2023-02-03T04:04:15;-0.80;99.90
31979;DHT22;18502;43.574;1.276;2023-02-03T04:06:42;-1.00;99.90
31979;DHT22;18502;43.574;1.276;2023-02-03T04:09:07;-1.10;99.90
31979;DHT22;18502;43.574;1.276;2023-02-03T04:11:33;-1.10;99.90
31979;DHT22;18502;43.574;1.276;2023-02-03T04:14:17;-1.10;99.90
31979;DHT22;18502;43.574;1.276;2023-02-03T04:16:43;-1.10;99.90
31979;DHT22;18502;43.574;1.276;2023-02-03T04:19:08;-1.00;99.90
31979;DHT22;18502;43.574;1.276;2023-02-03T04:21:34;-1.10;99.90
31979;DHT22;18502;43.574;1.276;2023-02-03T04:23:59;-1.10;99.90
31979;DHT22;18502;43.574;1.276;2023-02-03T04:26:25;-1.10;99.90
31979;DHT22;18502;43.574;1.276;2023-02-03T04:28:50;-1.10;99.90
31979;DHT22;18502;43.574;1.276;2023-02-03T04:31:16;-1.10;99.90
31979;DHT22;18502;43.574;1.276;2023-02-03T04:33:41;-1.10;99.90
31979;DHT22;18502;43.574;1.276;2023-02-03T04:36:07;-1.20;99.90
31979;DHT22;18502;43.574;1.276;2023-02-03T04:38:33;-1.30;99.90
31979;DHT22;18502;43.574;1.276;2023-02-03T04:40:59;-1.30;99.90
31979;DHT22;18502;43.574;1.276;2023-02-03T04:43:24;-1.30;99.90
31979;DHT22;18502;43.574;1.276;2023-02-03T04:45:50;-1.40;99.90
31979;DHT22;18502;43.574;1.276;2023-02-03T04:48:15;-1.30;99.90
31979;DHT22;18502;43.574;1.276;2023-02-03T04:50:41;-1.30;99.90
31979;DHT22;18502;43.574;1.276;2023-02-03T04:53:06;-1.40;99.90
31979;DHT22;18502;43.574;1.276;2023-02-03T04:55:32;-1.40;99.90
31979;DHT22;18502;43.574;1.276;2023-02-03T04:57:58;-1.40;99.90
31979;DHT22;18502;43.574;1.276;2023-02-03T05:00:24;-1.30;99.90
31979;DHT22;18502;43.574;1.276;2023-02-03T05:02:49;-1.40;99.90
31979;DHT22;18502;43.574;1.276;2023-02-03T05:05:15;-1.40;99.90
31979;DHT22;18502;43.574;1.276;2023-02-03T05:07:40;-1.40;99.90
31979;DHT22;18502;43.574;1.276;2023-02-03T05:10:06;-1.40;99.90
31979;DHT22;18502;43.574;1.276;2023-02-03T05:12:32;-1.30;99.90
31979;DHT22;18502;43.574;1.276;2023-02-03T05:14:57;-1.40;99.90
31979;DHT22;18502;43.574;1.276;2023-02-03T05:17:23;-1.40;99.90
31979;DHT22;18502;43.574;1.276;2023-02-03T05:19:48;-1.50;99.90
31979;DHT22;18502;43.574;1.276;2023-02-03T05:22:14;-1.60;99.90
31979;DHT22;18502;43.574;1.276;2023-02-03T05:24:39;-1.60;99.90
31979;DHT22;18502;43.574;1.276;2023-02-03T05:27:05;-1.70;99.90
31979;DHT22;18502;43.574;1.276;2023-02-03T05:29:30;-1.70;99.90
31979;DHT22;18502;43.574;1.276;2023-02-03T05:31:56;-1.80;99.90
31979;DHT22;18502;43.574;1.276;2023-02-03T05:34:21;-1.70;99.90
31979;DHT22;18502;43.574;1.276;2023-02-03T05:36:47;-1.60;99.90
31979;DHT22;18502;43.574;1.276;2023-02-03T05:39:13;-1.70;99.90
31979;DHT22;18502;43.574;1.276;2023-02-03T05:41:38;-1.70;99.90
31979;DHT22;18502;43.574;1.276;2023-02-03T05:44:20;-1.70;99.90
31979;DHT22;18502;43.574;1.276;2023-02-03T05:46:46;-1.70;99.90
31979;DHT22;18502;43.574;1.276;2023-02-03T05:49:12;-1.70;99.90
31979;DHT22;18502;43.574;1.276;2023-02-03T05:51:37;-1.60;99.90
31979;DHT22;18502;43.574;1.276;2023-02-03T05:54:03;-1.70;99.90
31979;DHT22;18502;43.574;1.276;2023-02-03T05:56:29;-1.80;99.90
31979;DHT22;18502;43.574;1.276;2023-02-03T05:58:55;-1.80;99.90
31979;DHT22;18502;43.574;1.276;2023-02-03T06:01:20;-1.80;99.90
31979;DHT22;18502;43.574;1.276;2023-02-03T06:03:46;-1.90;99.90
31979;DHT22;18502;43.574;1.276;2023-02-03T06:06:12;-1.80;99.90
31979;DHT22;18502;43.574;1.276;2023-02-03T06:08:37;-1.90;99.90
31979;DHT22;18502;43.574;1.276;2023-02-03T06:11:03;-2.00;99.90
31979;DHT22;18502;43.574;1.276;2023-02-03T06:13:29;-2.00;99.90
31979;DHT22;18502;43.574;1.276;2023-02-03T06:15:54;-2.00;99.90
31979;DHT22;18502;43.574;1.276;2023-02-03T06:18:20;-2.00;99.90
31979;DHT22;18502;43.574;1.276;2023-02-03T06:20:46;-1.70;99.90
31979;DHT22;18502;43.574;1.276;2023-02-03T06:23:11;-1.70;99.90
31979;DHT22;18502;43.574;1.276;2023-02-03T06:25:37;-1.70;99.90
31979;DHT22;18502;43.574;1.276;2023-02-03T06:28:02;-1.80;99.90
31979;DHT22;18502;43.574;1.276;2023-02-03T06:30:28;-1.90;99.90
31979;DHT22;18502;43.574;1.276;2023-02-03T06:32:54;-1.90;99.90
31979;DHT22;18502;43.574;1.276;2023-02-03T06:35:19;-1.90;99.90
31979;DHT22;18502;43.574;1.276;2023-02-03T06:37:45;-2.00;99.90
31979;DHT22;18502;43.574;1.276;2023-02-03T06:40:10;-2.00;99.90
31979;DHT22;18502;43.574;1.276;2023-02-03T06:42:36;-2.00;99.90
31979;DHT22;18502;43.574;1.276;2023-02-03T06:45:02;-2.00;99.90
31979;DHT22;18502;43.574;1.276;2023-02-03T06:47:27;-2.10;99.90
31979;DHT22;18502;43.574;1.276;2023-02-03T06:49:53;-1.90;99.90
31979;DHT22;18502;43.574;1.276;2023-02-03T06:52:19;-1.90;99.90
31979;DHT22;18502;43.574;1.276;2023-02-03T06:54:44;-1.90;99.90
31979;DHT22;18502;43.574;1.276;2023-02-03T06:57:10;-1.80;99.90
31979;DHT22;18502;43.574;1.276;2023-02-03T06:59:35;-1.90;99.90
31979;DHT22;18502;43.574;1.276;2023-02-03T07:02:01;-2.00;99.90
31979;DHT22;18502;43.574;1.276;2023-02-03T07:04:26;-2.10;99.90
31979;DHT22;18502;43.574;1.276;2023-02-03T07:06:55;-2.10;99.90
31979;DHT22;18502;43.574;1.276;2023-02-03T07:09:21;-2.10;99.90
31979;DHT22;18502;43.574;1.276;2023-02-03T07:11:47;-2.10;99.90
31979;DHT22;18502;43.574;1.276;2023-02-03T07:14:12;-2.10;99.90
31979;DHT22;18502;43.574;1.276;2023-02-03T07:16:38;-2.10;99.90
31979;DHT22;18502;43.574;1.276;2023-02-03T07:19:04;-2.10;99.90
31979;DHT22;18502;43.574;1.276;2023-02-03T07:21:29;-2.10;99.90
31979;DHT22;18502;43.574;1.276;2023-02-03T07:23:55;-2.00;99.90
31979;DHT22;18502;43.574;1.276;2023-02-03T07:26:21;-1.90;99.90
31979;DHT22;18502;43.574;1.276;2023-02-03T07:28:48;-1.80;99.90
31979;DHT22;18502;43.574;1.276;2023-02-03T07:31:14;-1.70;99.90
31979;DHT22;18502;43.574;1.276;2023-02-03T07:33:39;-1.80;99.90
31979;DHT22;18502;43.574;1.276;2023-02-03T07:36:05;-1.70;99.90
31979;DHT22;18502;43.574;1.276;2023-02-03T07:38:31;-1.60;99.90
31979;DHT22;18502;43.574;1.276;2023-02-03T07:40:57;-1.50;99.90
31979;DHT22;18502;43.574;1.276;2023-02-03T07:43:23;-1.50;99.90
31979;DHT22;18502;43.574;1.276;2023-02-03T07:45:48;-1.50;99.90
31979;DHT22;18502;43.574;1.276;2023-02-03T07:48:14;-1.40;99.90
31979;DHT22;18502;43.574;1.276;2023-02-03T07:50:39;-1.30;99.90
31979;DHT22;18502;43.574;1.276;2023-02-03T07:53:05;-1.30;99.90
31979;DHT22;18502;43.574;1.276;2023-02-03T07:55:33;-1.30;99.90
31979;DHT22;18502;43.574;1.276;2023-02-03T07:57:59;-1.20;99.90
31979;DHT22;18502;43.574;1.276;2023-02-03T08:00:25;-1.00;99.90
31979;DHT22;18502;43.574;1.276;2023-02-03T08:02:50;-1.00;99.90
31979;DHT22;18502;43.574;1.276;2023-02-03T08:05:16;-0.90;99.90
31979;DHT22;18502;43.574;1.276;2023-02-03T08:07:43;-0.70;99.90
31979;DHT22;18502;43.574;1.276;2023-02-03T08:10:09;-0.70;99.90
31979;DHT22;18502;43.574;1.276;2023-02-03T08:12:35;-0.60;99.90
31979;DHT22;18502;43.574;1.276;2023-02-03T08:15:01;-0.40;99.90
31979;DHT22;18502;43.574;1.276;2023-02-03T08:17:27;-0.30;99.90
31979;DHT22;18502;43.574;1.276;2023-02-03T08:19:52;-0.30;99.90
31979;DHT22;18502;43.574;1.276;2023-02-03T08:22:18;0.00;99.90
31979;DHT22;18502;43.574;1.276;2023-02-03T08:24:44;1.00;99.90
31979;DHT22;18502;43.574;1.276;2023-02-03T08:27:17;1.90;99.90
31979;DHT22;18502;43.574;1.276;2023-02-03T08:29:43;2.70;95.90
31979;DHT22;18502;43.574;1.276;2023-02-03T08:32:10;4.40;90.80
31979;DHT22;18502;43.574;1.276;2023-02-03T08:34:35;5.70;80.90
31979;DHT22;18502;43.574;1.276;2023-02-03T08:37:01;5.50;79.90
31979;DHT22;18502;43.574;1.276;2023-02-03T08:39:27;4.20;87.20
31979;DHT22;18502;43.574;1.276;2023-02-03T08:41:52;3.90;89.70
31979;DHT22;18502;43.574;1.276;2023-02-03T08:44:18;2.90;93.70
31979;DHT22;18502;43.574;1.276;2023-02-03T08:46:44;2.50;95.30
31979;DHT22;18502;43.574;1.276;2023-02-03T08:49:10;3.50;93.90
31979;DHT22;18502;43.574;1.276;2023-02-03T08:51:35;5.60;85.80
31979;DHT22;18502;43.574;1.276;2023-02-03T08:54:01;6.80;77.10
31979;DHT22;18502;43.574;1.276;2023-02-03T08:56:27;8.40;68.10
31979;DHT22;18502;43.574;1.276;2023-02-03T08:58:52;10.00;61.80
31979;DHT22;18502;43.574;1.276;2023-02-03T09:01:18;10.10;59.70
31979;DHT22;18502;43.574;1.276;2023-02-03T09:03:44;9.70;61.40
31979;DHT22;18502;43.574;1.276;2023-02-03T09:06:10;10.10;60.80
31979;DHT22;18502;43.574;1.276;2023-02-03T09:08:42;10.00;57.20
31979;DHT22;18502;43.574;1.276;2023-02-03T09:11:11;10.90;55.10
31979;DHT22;18502;43.574;1.276;2023-02-03T09:13:38;11.40;54.20
31979;DHT22;18502;43.574;1.276;2023-02-03T09:16:06;12.80;51.20
31979;DHT22;18502;43.574;1.276;2023-02-03T09:18:32;14.00;47.20
31979;DHT22;18502;43.574;1.276;2023-02-03T09:21:05;13.40;48.10
31979;DHT22;18502;43.574;1.276;2023-02-03T09:23:30;13.40;47.70
31979;DHT22;18502;43.574;1.276;2023-02-03T09:26:00;12.40;48.80
31979;DHT22;18502;43.574;1.276;2023-02-03T09:28:26;13.70;45.80
31979;DHT22;18502;43.574;1.276;2023-02-03T09:30:51;12.50;46.70
31979;DHT22;18502;43.574;1.276;2023-02-03T09:33:17;12.70;47.90
31979;DHT22;18502;43.574;1.276;2023-02-03T09:35:50;13.10;48.10
31979;DHT22;18502;43.574;1.276;2023-02-03T09:38:15;14.80;43.80
31979;DHT22;18502;43.574;1.276;2023-02-03T09:40:41;15.90;41.10
31979;DHT22;18502;43.574;1.276;2023-02-03T09:45:41;16.60;38.60
31979;DHT22;18502;43.574;1.276;2023-02-03T09:48:12;16.90;37.00
31979;DHT22;18502;43.574;1.276;2023-02-03T09:50:39;16.60;38.30
31979;DHT22;18502;43.574;1.276;2023-02-03T09:53:09;16.10;38.40
31979;DHT22;18502;43.574;1.276;2023-02-03T09:55:43;16.20;38.20
31979;DHT22;18502;43.574;1.276;2023-02-03T09:58:10;15.80;40.10
31979;DHT22;18502;43.574;1.276;2023-02-03T10:00:42;17.30;36.90
31979;DHT22;18502;43.574;1.276;2023-02-03T10:03:14;18.00;35.10
31979;DHT22;18502;43.574;1.276;2023-02-03T10:05:48;18.80;34.60
31979;DHT22;18502;43.574;1.276;2023-02-03T10:10:47;20.00;30.70
31979;DHT22;18502;43.574;1.276;2023-02-03T10:18:42;19.30;29.90
31979;DHT22;18502;43.574;1.276;2023-02-03T10:21:15;19.80;30.60
31979;DHT22;18502;43.574;1.276;2023-02-03T10:23:44;20.50;28.60
31979;DHT22;18502;43.574;1.276;2023-02-03T10:26:15;21.50;28.10
31979;DHT22;18502;43.574;1.276;2023-02-03T10:28:44;19.00;28.10
31979;DHT22;18502;43.574;1.276;2023-02-03T10:31:22;17.80;31.10
31979;DHT22;18502;43.574;1.276;2023-02-03T10:33:51;19.80;30.80
31979;DHT22;18502;43.574;1.276;2023-02-03T10:36:19;22.00;27.70
31979;DHT22;18502;43.574;1.276;2023-02-03T10:38:49;20.70;27.00
31979;DHT22;18502;43.574;1.276;2023-02-03T10:41:18;22.00;26.50
31979;DHT22;18502;43.574;1.276;2023-02-03T10:43:44;22.90;25.10
31979;DHT22;18502;43.574;1.276;2023-02-03T10:46:13;23.00;24.10
31979;DHT22;18502;43.574;1.276;2023-02-03T10:48:39;22.60;25.00
31979;DHT22;18502;43.574;1.276;2023-02-03T10:51:08;23.10;22.80
31979;DHT22;18502;43.574;1.276;2023-02-03T10:53:36;22.70;23.80
31979;DHT22;18502;43.574;1.276;2023-02-03T10:56:03;23.60;24.10
31979;DHT22;18502;43.574;1.276;2023-02-03T10:58:29;23.00;22.40
31979;DHT22;18502;43.574;1.276;2023-02-03T11:00:56;21.30;25.20
31979;DHT22;18502;43.574;1.276;2023-02-03T11:03:27;22.80;25.20
31979;DHT22;18502;43.574;1.276;2023-02-03T11:06:07;22.00;22.90
31979;DHT22;18502;43.574;1.276;2023-02-03T11:08:33;21.90;24.40
31979;DHT22;18502;43.574;1.276;2023-02-03T11:11:04;22.40;24.50
31979;DHT22;18502;43.574;1.276;2023-02-03T11:13:30;21.70;24.30
31979;DHT22;18502;43.574;1.276;2023-02-03T11:18:24;24.70;20.90
31979;DHT22;18502;43.574;1.276;2023-02-03T11:20:49;24.70;20.40
31979;DHT22;18502;43.574;1.276;2023-02-03T11:23:16;24.40;19.50
31979;DHT22;18502;43.574;1.276;2023-02-03T11:25:42;24.70;19.20
31979;DHT22;18502;43.574;1.276;2023-02-03T11:28:09;24.10;19.60
31979;DHT22;18502;43.574;1.276;2023-02-03T11:30:36;24.20;19.70
31979;DHT22;18502;43.574;1.276;2023-02-03T11:33:04;23.80;19.50
31979;DHT22;18502;43.574;1.276;2023-02-03T11:35:40;22.30;20.80
31979;DHT22;18502;43.574;1.276;2023-02-03T11:38:33;21.90;20.50
31979;DHT22;18502;43.574;1.276;2023-02-03T11:41:04;20.90;22.00
31979;DHT22;18502;43.574;1.276;2023-02-03T11:43:30;22.30;21.70
31979;DHT22;18502;43.574;1.276;2023-02-03T11:45:59;21.80;20.60
31979;DHT22;18502;43.574;1.276;2023-02-03T11:48:34;22.90;20.20
31979;DHT22;18502;43.574;1.276;2023-02-03T12:14:03;24.00;19.60
31979;DHT22;18502;43.574;1.276;2023-02-03T12:21:47;24.10;20.60
31979;DHT22;18502;43.574;1.276;2023-02-03T12:29:23;23.30;18.90
31979;DHT22;18502;43.574;1.276;2023-02-03T12:32:06;24.60;19.30
31979;DHT22;18502;43.574;1.276;2023-02-03T12:34:39;26.30;18.40
31979;DHT22;18502;43.574;1.276;2023-02-03T12:37:08;27.70;18.60
31979;DHT22;18502;43.574;1.276;2023-02-03T12:39:41;29.00;16.40
31979;DHT22;18502;43.574;1.276;2023-02-03T12:42:17;29.20;16.80
31979;DHT22;18502;43.574;1.276;2023-02-03T12:44:51;24.10;17.10
31979;DHT22;18502;43.574;1.276;2023-02-03T12:47:26;22.40;20.60
31979;DHT22;18502;43.574;1.276;2023-02-03T12:49:54;23.60;20.30
31979;DHT22;18502;43.574;1.276;2023-02-03T12:52:31;27.10;17.30
31979;DHT22;18502;43.574;1.276;2023-02-03T12:57:49;22.80;20.70
31979;DHT22;18502;43.574;1.276;2023-02-03T13:03:16;26.60;19.30
31979;DHT22;18502;43.574;1.276;2023-02-03T13:05:49;28.30;15.90
31979;DHT22;18502;43.574;1.276;2023-02-03T13:10:52;26.10;17.30
31979;DHT22;18502;43.574;1.276;2023-02-03T13:13:25;26.60;16.80
31979;DHT22;18502;43.574;1.276;2023-02-03T13:15:53;28.50;15.60
31979;DHT22;18502;43.574;1.276;2023-02-03T13:20:53;24.90;17.20
31979;DHT22;18502;43.574;1.276;2023-02-03T13:23:18;23.20;19.00
31979;DHT22;18502;43.574;1.276;2023-02-03T13:28:27;23.50;21.20
31979;DHT22;18502;43.574;1.276;2023-02-03T13:42:07;24.50;18.40
31979;DHT22;18502;43.574;1.276;2023-02-03T13:44:11;23.90;18.90
31979;DHT22;18502;43.574;1.276;2023-02-03T13:46:38;24.20;17.30
31979;DHT22;18502;43.574;1.276;2023-02-03T13:49:04;25.50;17.60
31979;DHT22;18502;43.574;1.276;2023-02-03T13:51:35;27.50;16.50
31979;DHT22;18502;43.574;1.276;2023-02-03T13:54:03;28.20;15.50
31979;DHT22;18502;43.574;1.276;2023-02-03T13:56:30;28.50;13.80
31979;DHT22;18502;43.574;1.276;2023-02-03T14:01:37;25.80;16.90
31979;DHT22;18502;43.574;1.276;2023-02-03T14:06:57;28.50;15.10
31979;DHT22;18502;43.574;1.276;2023-02-03T14:14:43;26.90;16.40
31979;DHT22;18502;43.574;1.276;2023-02-03T14:17:52;25.90;16.70
31979;DHT22;18502;43.574;1.276;2023-02-03T14:20:10;28.10;16.20
31979;DHT22;18502;43.574;1.276;2023-02-03T14:22:49;28.20;15.50
31979;DHT22;18502;43.574;1.276;2023-02-03T14:25:14;26.70;16.50
31979;DHT22;18502;43.574;1.276;2023-02-03T14:27:42;27.10;16.30
31979;DHT22;18502;43.574;1.276;2023-02-03T14:30:14;27.60;15.00
31979;DHT22;18502;43.574;1.276;2023-02-03T14:35:36;29.20;14.40
31979;DHT22;18502;43.574;1.276;2023-02-03T14:38:01;29.00;14.60
31979;DHT22;18502;43.574;1.276;2023-02-03T14:41:01;28.60;13.50
31979;DHT22;18502;43.574;1.276;2023-02-03T14:58:41;26.40;16.20
31979;DHT22;18502;43.574;1.276;2023-02-03T15:01:15;25.70;16.40
31979;DHT22;18502;43.574;1.276;2023-02-03T15:04:04;27.00;16.30
31979;DHT22;18502;43.574;1.276;2023-02-03T15:06:39;24.20;17.10
31979;DHT22;18502;43.574;1.276;2023-02-03T15:09:15;24.00;19.50
31979;DHT22;18502;43.574;1.276;2023-02-03T15:11:45;26.50;17.60
31979;DHT22;18502;43.574;1.276;2023-02-03T15:14:33;27.40;16.00
31979;DHT22;18502;43.574;1.276;2023-02-03T15:16:59;25.60;16.70
31979;DHT22;18502;43.574;1.276;2023-02-03T15:19:26;23.40;18.00
31979;DHT22;18502;43.574;1.276;2023-02-03T15:21:52;24.40;17.50
31979;DHT22;18502;43.574;1.276;2023-02-03T15:24:18;25.80;17.90
31979;DHT22;18502;43.574;1.276;2023-02-03T15:26:54;25.30;16.20
31979;DHT22;18502;43.574;1.276;2023-02-03T15:31:47;23.10;18.50
31979;DHT22;18502;43.574;1.276;2023-02-03T15:34:21;24.30;18.50
31979;DHT22;18502;43.574;1.276;2023-02-03T15:36:48;23.90;19.00
31979;DHT22;18502;43.574;1.276;2023-02-03T15:41:56;25.30;16.80
31979;DHT22;18502;43.574;1.276;2023-02-03T15:47:19;25.10;16.80
31979;DHT22;18502;43.574;1.276;2023-02-03T15:49:47;24.40;17.40
31979;DHT22;18502;43.574;1.276;2023-02-03T15:52:17;25.00;17.70
31979;DHT22;18502;43.574;1.276;2023-02-03T15:54:46;22.80;19.00
31979;DHT22;18502;43.574;1.276;2023-02-03T15:57:28;23.70;19.00
31979;DHT22;18502;43.574;1.276;2023-02-03T16:00:01;24.10;18.60
31979;DHT22;18502;43.574;1.276;2023-02-03T16:02:33;24.00;17.70
31979;DHT22;18502;43.574;1.276;2023-02-03T16:05:04;23.70;18.40
31979;DHT22;18502;43.574;1.276;2023-02-03T16:07:30;22.20;19.80
31979;DHT22;18502;43.574;1.276;2023-02-03T16:09:59;21.20;21.50
31979;DHT22;18502;43.574;1.276;2023-02-03T16:12:25;19.60;23.30
31979;DHT22;18502;43.574;1.276;2023-02-03T16:14:52;19.20;24.40
31979;DHT22;18502;43.574;1.276;2023-02-03T16:19:46;17.60;26.00
31979;DHT22;18502;43.574;1.276;2023-02-03T16:22:26;17.00;27.90
31979;DHT22;18502;43.574;1.276;2023-02-03T16:24:51;16.70;28.30
31979;DHT22;18502;43.574;1.276;2023-02-03T16:29:52;16.60;28.90
31979;DHT22;18502;43.574;1.276;2023-02-03T16:32:37;16.60;29.10
31979;DHT22;18502;43.574;1.276;2023-02-03T16:35:21;16.30;29.70
31979;DHT22;18502;43.574;1.276;2023-02-03T16:38:06;15.00;31.50
31979;DHT22;18502;43.574;1.276;2023-02-03T16:40:50;14.20;35.00
31979;DHT22;18502;43.574;1.276;2023-02-03T16:43:34;13.70;36.50
31979;DHT22;18502;43.574;1.276;2023-02-03T16:46:18;13.20;38.20
31979;DHT22;18502;43.574;1.276;2023-02-03T16:49:03;12.90;39.70
31979;DHT22;18502;43.574;1.276;2023-02-03T16:51:47;12.60;40.60
31979;DHT22;18502;43.574;1.276;2023-02-03T16:54:13;12.60;41.60
31979;DHT22;18502;43.574;1.276;2023-02-03T16:56:39;12.30;42.00
31979;DHT22;18502;43.574;1.276;2023-02-03T16:59:05;12.00;43.10
31979;DHT22;18502;43.574;1.276;2023-02-03T17:01:30;11.90;44.10
31979;DHT22;18502;43.574;1.276;2023-02-03T17:03:56;11.60;44.60
31979;DHT22;18502;43.574;1.276;2023-02-03T17:06:21;11.30;45.20
31979;DHT22;18502;43.574;1.276;2023-02-03T17:08:47;11.00;45.90
31979;DHT22;18502;43.574;1.276;2023-02-03T17:11:13;10.90;46.90
31979;DHT22;18502;43.574;1.276;2023-02-03T17:13:40;10.70;47.60
31979;DHT22;18502;43.574;1.276;2023-02-03T17:16:08;10.50;47.50
31979;DHT22;18502;43.574;1.276;2023-02-03T17:18:35;10.20;48.80
31979;DHT22;18502;43.574;1.276;2023-02-03T17:21:04;10.10;49.40
31979;DHT22;18502;43.574;1.276;2023-02-03T17:23:30;10.00;50.00
31979;DHT22;18502;43.574;1.276;2023-02-03T17:25:56;9.90;50.40
31979;DHT22;18502;43.574;1.276;2023-02-03T17:28:21;9.90;50.80
31979;DHT22;18502;43.574;1.276;2023-02-03T17:30:57;9.70;51.30
31979;DHT22;18502;43.574;1.276;2023-02-03T17:33:23;9.50;51.70
31979;DHT22;18502;43.574;1.276;2023-02-03T17:35:52;9.40;52.30
31979;DHT22;18502;43.574;1.276;2023-02-03T17:38:23;9.20;53.00
31979;DHT22;18502;43.574;1.276;2023-02-03T17:40:48;9.10;53.30
31979;DHT22;18502;43.574;1.276;2023-02-03T17:43:14;9.00;53.60
31979;DHT22;18502;43.574;1.276;2023-02-03T17:45:39;9.00;53.90
31979;DHT22;18502;43.574;1.276;2023-02-03T17:48:05;8.80;54.90
31979;DHT22;18502;43.574;1.276;2023-02-03T17:50:30;8.60;55.80
31979;DHT22;18502;43.574;1.276;2023-02-03T17:52:56;8.40;56.80
31979;DHT22;18502;43.574;1.276;2023-02-03T17:55:22;8.40;58.20
31979;DHT22;18502;43.574;1.276;2023-02-03T17:57:47;8.20;57.00
31979;DHT22;18502;43.574;1.276;2023-02-03T18:00:13;8.10;57.70
31979;DHT22;18502;43.574;1.276;2023-02-03T18:02:38;8.00;58.20